createdAt,value
2018-08-22T00:00:56.243Z,82.74
2018-08-22T00:03:24.784Z,84.07
2018-08-22T00:05:53.299Z,84.09
2018-08-22T00:08:53.451Z,84.00
2018-08-22T00:11:21.972Z,84.37
2018-08-22T00:13:50.449Z,84.37
2018-08-22T00:16:18.959Z,85.45
2018-08-22T00:18:47.504Z,85.65
2018-08-22T00:21:16.103Z,84.48
2018-08-22T00:23:44.748Z,84.27
2018-08-22T00:26:13.270Z,84.81
2018-08-22T00:28:41.772Z,83.64
2018-08-22T00:31:10.564Z,84.14
2018-08-22T00:33:39.152Z,84.78
2018-08-22T00:36:14.399Z,84.69
2018-08-22T00:38:42.899Z,84.96
2018-08-22T00:41:11.393Z,85.14
2018-08-22T00:43:40.019Z,84.47
2018-08-22T00:46:08.515Z,84.44
2018-08-22T00:48:37.010Z,84.94
2018-08-22T00:51:05.524Z,85.05
2018-08-22T00:53:34.110Z,84.86
2018-08-22T00:56:03.504Z,84.50
2018-08-22T00:58:32.025Z,84.90
2018-08-22T01:01:00.588Z,83.99
2018-08-22T01:03:29.224Z,83.68
2018-08-22T01:05:57.768Z,85.21
2018-08-22T01:08:26.390Z,85.01
2018-08-22T01:10:54.916Z,85.11
2018-08-22T01:13:23.467Z,85.19
2018-08-22T01:15:51.973Z,84.73
2018-08-22T01:18:20.495Z,84.29
2018-08-22T01:20:49.022Z,84.80
2018-08-22T01:23:17.548Z,85.08
2018-08-22T01:25:46.034Z,84.38
2018-08-22T01:28:14.551Z,84.72
2018-08-22T01:30:43.038Z,85.29
2018-08-22T01:33:11.509Z,85.19
2018-08-22T01:35:40.049Z,84.81
2018-08-22T01:38:08.561Z,85.11
2018-08-22T01:40:37.141Z,84.75
2018-08-22T01:43:05.721Z,85.36
2018-08-22T01:45:34.346Z,84.67
2018-08-22T01:48:03.132Z,85.13
2018-08-22T01:50:31.768Z,85.40
2018-08-22T01:53:00.287Z,85.49
2018-08-22T01:55:29.800Z,84.90
2018-08-22T01:57:58.441Z,85.31
2018-08-22T02:00:27.064Z,85.01
2018-08-22T02:02:56.411Z,85.91
2018-08-22T02:05:24.979Z,85.03
2018-08-22T02:07:53.517Z,85.56
2018-08-22T02:10:22.439Z,85.39
2018-08-22T02:12:50.910Z,84.82
2018-08-22T02:15:19.564Z,85.73
2018-08-22T02:17:48.136Z,84.94
2018-08-22T02:20:16.624Z,85.16
2018-08-22T02:22:45.139Z,85.22
2018-08-22T02:25:13.750Z,85.12
2018-08-22T02:27:43.130Z,84.54
2018-08-22T02:30:11.599Z,84.26
2018-08-22T02:32:40.141Z,85.37
2018-08-22T02:35:08.916Z,85.99
2018-08-22T02:37:37.401Z,85.54
2018-08-22T02:40:06.057Z,85.92
2018-08-22T02:42:34.606Z,85.50
2018-08-22T02:45:03.502Z,85.85
2018-08-22T02:47:33.996Z,85.30
2018-08-22T02:50:02.480Z,85.33
2018-08-22T02:52:30.992Z,84.46
2018-08-22T02:55:01.638Z,85.30
2018-08-22T02:57:30.163Z,86.42
2018-08-22T02:59:58.714Z,85.61
2018-08-22T03:02:27.186Z,84.99
2018-08-22T03:04:55.728Z,84.86
2018-08-22T03:07:24.235Z,85.05
2018-08-22T03:09:52.744Z,86.24
2018-08-22T03:12:21.918Z,85.75
2018-08-22T03:14:50.411Z,85.49
2018-08-22T03:17:20.015Z,85.45
2018-08-22T03:19:48.563Z,86.17
2018-08-22T03:22:17.262Z,86.24
2018-08-22T03:24:45.942Z,85.44
2018-08-22T03:27:15.866Z,85.28
2018-08-22T03:29:44.494Z,85.75
2018-08-22T03:32:13.102Z,86.01
2018-08-22T03:34:41.701Z,86.19
2018-08-22T03:37:10.278Z,85.29
2018-08-22T03:39:39.196Z,86.04
2018-08-22T03:42:07.905Z,86.09
2018-08-22T03:44:36.506Z,86.25
2018-08-22T03:47:05.022Z,86.24
2018-08-22T03:49:33.644Z,86.85
2018-08-22T03:52:02.632Z,85.69
2018-08-22T03:54:31.148Z,85.66
2018-08-22T03:56:59.635Z,86.72
2018-08-22T03:59:28.140Z,86.34
2018-08-22T04:01:56.638Z,86.91
2018-08-22T04:04:25.166Z,86.68
2018-08-22T04:06:53.708Z,86.46
2018-08-22T04:09:22.182Z,86.31
2018-08-22T04:11:50.681Z,86.76
2018-08-22T04:14:19.362Z,86.88
2018-08-22T04:16:47.832Z,86.49
2018-08-22T04:19:16.308Z,86.18
2018-08-22T04:21:44.841Z,86.28
2018-08-22T04:24:13.377Z,86.78
2018-08-22T04:26:41.855Z,86.21
2018-08-22T04:29:10.455Z,87.05
2018-08-22T04:31:38.969Z,86.64
2018-08-22T04:34:07.446Z,85.66
2018-08-22T04:36:35.968Z,86.29
2018-08-22T04:39:05.875Z,86.63
2018-08-22T04:41:34.405Z,86.87
2018-08-22T04:44:02.931Z,86.96
2018-08-22T04:46:31.419Z,86.48
2018-08-22T04:48:59.935Z,85.62
2018-08-22T04:51:28.408Z,85.92
2018-08-22T04:53:56.928Z,86.13
2018-08-22T04:56:25.690Z,85.90
2018-08-22T04:58:54.173Z,85.87
2018-08-22T05:01:22.707Z,85.48
2018-08-22T05:03:52.111Z,85.71
2018-08-22T05:06:20.613Z,85.31
2018-08-22T05:08:49.124Z,85.60
2018-08-22T05:11:17.649Z,84.66
2018-08-22T05:13:46.193Z,85.29
2018-08-22T05:16:14.672Z,85.75
2018-08-22T05:18:43.188Z,85.02
2018-08-22T05:21:11.692Z,84.43
2018-08-22T05:23:40.220Z,84.14
2018-08-22T05:26:08.754Z,83.66
2018-08-22T05:28:37.401Z,84.21
2018-08-22T05:31:05.879Z,83.87
2018-08-22T05:33:34.460Z,84.23
2018-08-22T05:36:03.032Z,83.53
2018-08-22T05:38:31.544Z,83.91
2018-08-22T05:41:00.196Z,83.21
2018-08-22T05:43:28.713Z,82.77
2018-08-22T05:45:57.240Z,82.76
2018-08-22T05:48:25.711Z,82.83
2018-08-22T05:50:54.405Z,82.50
2018-08-22T05:53:22.904Z,80.14
2018-08-22T05:55:51.850Z,79.15
2018-08-22T05:58:20.404Z,78.67
2018-08-22T06:00:48.957Z,77.38
2018-08-22T06:03:18.015Z,76.60
2018-08-22T06:05:46.708Z,77.07
2018-08-22T06:08:15.262Z,76.21
2018-08-22T06:10:43.826Z,75.53
2018-08-22T06:13:12.417Z,74.54
2018-08-22T06:15:40.902Z,74.59
2018-08-22T06:18:09.490Z,74.20
2018-08-22T06:20:38.018Z,74.40
2018-08-22T06:23:06.752Z,73.53
2018-08-22T06:25:35.476Z,71.93
2018-08-22T06:28:04.059Z,72.09
2018-08-22T06:30:33.709Z,72.68
2018-08-22T06:33:02.242Z,72.11
2018-08-22T06:35:30.763Z,71.81
2018-08-22T06:37:59.235Z,70.23
2018-08-22T06:40:27.737Z,70.12
2018-08-22T06:42:56.277Z,70.10
2018-08-22T06:45:24.813Z,70.06
2018-08-22T06:47:53.366Z,69.77
2018-08-22T06:50:21.930Z,69.19
2018-08-22T06:52:50.697Z,68.31
2018-08-22T06:55:19.192Z,68.73
2018-08-22T06:57:47.757Z,67.46
2018-08-22T07:00:16.288Z,67.54
2018-08-22T07:02:44.884Z,67.01
2018-08-22T07:05:13.415Z,67.22
2018-08-22T07:07:41.893Z,66.38
2018-08-22T07:10:10.589Z,66.66
2018-08-22T07:12:39.118Z,65.69
2018-08-22T07:15:07.983Z,65.69
2018-08-22T07:17:36.494Z,65.39
2018-08-22T07:20:06.040Z,64.00
2018-08-22T07:22:34.781Z,64.68
2018-08-22T07:25:03.805Z,64.21
2018-08-22T07:27:32.286Z,64.67
2018-08-22T07:30:01.571Z,63.86
2018-08-22T07:32:30.255Z,63.52
2018-08-22T07:34:58.901Z,63.85
2018-08-22T07:37:27.498Z,63.61
2018-08-22T07:39:56.075Z,62.75
2018-08-22T07:42:24.604Z,61.08
2018-08-22T07:44:53.137Z,62.63
2018-08-22T07:47:21.975Z,62.64
2018-08-22T07:49:50.496Z,61.94
2018-08-22T07:52:19.296Z,61.10
2018-08-22T07:54:48.336Z,60.71
2018-08-22T07:57:18.245Z,59.42
2018-08-22T07:59:46.813Z,59.33
2018-08-22T08:02:15.314Z,58.84
2018-08-22T08:04:43.837Z,57.65
2018-08-22T08:07:12.430Z,57.73
2018-08-22T08:09:40.957Z,58.88
2018-08-22T08:12:09.560Z,55.98
2018-08-22T08:14:38.053Z,55.26
2018-08-22T08:17:06.676Z,53.26
2018-08-22T08:19:35.337Z,52.91
2018-08-22T08:22:03.912Z,52.72
2018-08-22T08:24:32.410Z,52.22
2018-08-22T08:27:00.997Z,54.16
2018-08-22T08:29:29.583Z,54.43
2018-08-22T08:31:58.158Z,51.42
2018-08-22T08:34:26.648Z,50.96
2018-08-22T08:36:55.471Z,50.67
2018-08-22T08:39:23.989Z,50.14
2018-08-22T08:41:52.510Z,51.25
2018-08-22T08:44:21.225Z,49.91
2018-08-22T08:46:49.838Z,49.99
2018-08-22T08:49:18.353Z,49.29
2018-08-22T08:51:56.741Z,50.25
2018-08-22T08:54:25.247Z,49.98
2018-08-22T08:56:53.880Z,50.92
2018-08-22T08:59:22.617Z,49.62
2018-08-22T09:01:51.250Z,51.21
2018-08-22T09:04:19.780Z,48.41
2018-08-22T09:06:49.212Z,48.29
2018-08-22T09:09:17.841Z,48.20
2018-08-22T09:11:51.633Z,49.70
2018-08-22T09:14:20.192Z,48.42
2018-08-22T09:16:48.969Z,48.12
2018-08-22T09:19:17.454Z,50.05
2018-08-22T09:21:45.955Z,48.39
2018-08-22T09:24:14.783Z,49.13
2018-08-22T09:26:43.575Z,48.84
2018-08-22T09:29:12.482Z,47.84
2018-08-22T09:31:41.240Z,48.94
2018-08-22T09:34:09.825Z,47.67
2018-08-22T09:36:38.300Z,47.45
2018-08-22T09:39:10.065Z,48.72
2018-08-22T09:41:38.581Z,48.48
2018-08-22T09:44:07.779Z,46.92
2018-08-22T09:46:36.817Z,46.06
2018-08-22T09:49:05.465Z,45.22
2018-08-22T09:51:33.969Z,47.26
2018-08-22T09:54:02.523Z,47.44
2018-08-22T09:56:31.023Z,47.10
2018-08-22T09:58:59.674Z,45.74
2018-08-22T10:01:34.696Z,45.66
2018-08-22T10:04:03.317Z,45.69
2018-08-22T10:06:38.849Z,46.86
2018-08-22T10:09:16.736Z,46.67
2018-08-22T10:11:45.414Z,46.61
2018-08-22T10:14:14.404Z,45.24
2018-08-22T10:16:42.956Z,44.84
2018-08-22T10:19:11.601Z,43.67
2018-08-22T10:21:40.153Z,43.67
2018-08-22T10:24:08.985Z,44.00
2018-08-22T10:26:37.512Z,45.20
2018-08-22T10:29:06.012Z,44.38
2018-08-22T10:31:34.576Z,44.62
2018-08-22T10:34:03.225Z,44.66
2018-08-22T10:36:31.776Z,44.98
2018-08-22T10:39:00.313Z,43.99
2018-08-22T10:41:28.805Z,43.67
2018-08-22T10:43:57.297Z,43.24
2018-08-22T10:46:25.889Z,42.80
2018-08-22T10:48:54.393Z,41.90
2018-08-22T10:51:22.867Z,43.46
2018-08-22T10:53:51.411Z,41.05
2018-08-22T10:56:19.964Z,41.91
2018-08-22T10:58:48.510Z,44.04
2018-08-22T11:01:17.209Z,43.37
2018-08-22T11:03:45.695Z,42.04
2018-08-22T11:06:14.238Z,41.20
2018-08-22T11:08:42.836Z,43.60
2018-08-22T11:11:11.377Z,41.82
2018-08-22T11:13:39.965Z,41.55
2018-08-22T11:16:08.640Z,42.13
2018-08-22T11:18:37.607Z,42.66
2018-08-22T11:21:17.457Z,42.28
2018-08-22T11:23:57.166Z,44.22
2018-08-22T11:26:36.834Z,43.58
2018-08-22T11:29:16.664Z,44.36
2018-08-22T11:31:56.300Z,42.57
2018-08-22T11:34:36.224Z,41.17
2018-08-22T11:37:07.658Z,41.42
2018-08-22T11:39:36.167Z,39.00
2018-08-22T11:42:05.160Z,39.08
2018-08-22T11:44:33.955Z,39.16
2018-08-22T11:47:02.604Z,39.95
2018-08-22T11:49:31.781Z,41.22
2018-08-22T11:52:00.660Z,38.14
2018-08-22T11:54:29.707Z,39.87
2018-08-22T11:56:58.256Z,38.20
2018-08-22T11:59:26.774Z,39.11
2018-08-22T12:01:55.468Z,38.84
2018-08-22T12:04:23.932Z,38.05
2018-08-22T12:06:52.757Z,37.52
2018-08-22T12:09:21.428Z,38.33
2018-08-22T12:11:49.929Z,38.39
2018-08-22T12:14:19.375Z,36.64
2018-08-22T12:16:48.519Z,36.61
2018-08-22T12:19:18.103Z,37.28
2018-08-22T12:21:47.134Z,37.03
2018-08-22T12:24:16.419Z,36.39
2018-08-22T12:26:46.866Z,36.04
2018-08-22T12:29:15.924Z,36.80
2018-08-22T12:31:44.892Z,34.68
2018-08-22T12:34:14.024Z,33.58
2018-08-22T12:36:42.565Z,33.22
2018-08-22T12:39:11.132Z,32.17
2018-08-22T12:41:40.317Z,31.75
2018-08-22T12:44:10.246Z,29.98
2018-08-22T12:46:38.773Z,30.93
2018-08-22T12:49:07.388Z,34.02
2018-08-22T12:51:36.022Z,34.45
2018-08-22T12:54:04.586Z,31.49
2018-08-22T12:56:33.238Z,31.06
2018-08-22T12:59:01.776Z,30.70
2018-08-22T13:01:30.280Z,32.12
2018-08-22T13:03:58.808Z,32.18
2018-08-22T13:06:27.380Z,33.10
2018-08-22T13:08:55.924Z,33.56
2018-08-22T13:11:24.577Z,34.99
2018-08-22T13:13:53.164Z,36.13
2018-08-22T13:16:21.757Z,33.23
2018-08-22T13:18:50.307Z,35.29
2018-08-22T13:21:18.804Z,34.94
2018-08-22T13:23:47.328Z,34.90
2018-08-22T13:26:16.078Z,34.65
2018-08-22T13:28:44.649Z,35.55
2018-08-22T13:31:13.226Z,31.53
2018-08-22T13:33:41.834Z,30.67
2018-08-22T13:36:10.438Z,31.24
2018-08-22T13:38:39.183Z,34.00
2018-08-22T13:41:07.725Z,32.57
2018-08-22T13:43:36.309Z,32.60
2018-08-22T13:46:04.870Z,34.35
2018-08-22T13:48:33.392Z,33.33
2018-08-22T13:51:01.932Z,33.11
2018-08-22T13:53:30.430Z,33.04
2018-08-22T13:55:58.935Z,31.54
2018-08-22T13:58:27.520Z,32.73
2018-08-22T14:00:56.047Z,31.88
2018-08-22T14:03:24.690Z,31.78
2018-08-22T14:05:53.389Z,33.41
2018-08-22T14:08:22.324Z,34.51
2018-08-22T14:10:50.821Z,34.40
2018-08-22T14:13:19.352Z,35.24
2018-08-22T14:15:48.066Z,35.26
2018-08-22T14:18:17.107Z,33.32
2018-08-22T14:20:45.697Z,29.32
2018-08-22T14:23:14.212Z,29.11
2018-08-22T14:25:42.751Z,30.16
2018-08-22T14:28:11.349Z,29.99
2018-08-22T14:30:39.979Z,29.86
2018-08-22T14:33:08.644Z,31.70
2018-08-22T14:35:37.483Z,32.99
2018-08-22T14:38:06.336Z,32.46
2018-08-22T14:40:34.970Z,34.06
2018-08-22T14:43:03.481Z,34.75
2018-08-22T14:45:32.032Z,33.53
2018-08-22T14:48:00.590Z,33.16
2018-08-22T14:50:29.186Z,33.57
2018-08-22T14:52:57.699Z,30.62
2018-08-22T14:55:26.245Z,36.24
2018-08-22T14:57:54.803Z,34.41
2018-08-22T15:00:23.320Z,33.21
2018-08-22T15:02:52.232Z,33.72
2018-08-22T15:05:20.740Z,33.05
2018-08-22T15:07:49.251Z,32.68
2018-08-22T15:10:18.804Z,33.49
2018-08-22T15:12:48.310Z,36.73
2018-08-22T15:15:16.742Z,37.39
2018-08-22T15:17:45.571Z,36.91
2018-08-22T15:20:14.086Z,35.67
2018-08-22T15:22:42.618Z,35.42
2018-08-22T15:25:11.546Z,37.15
2018-08-22T15:27:40.044Z,35.18
2018-08-22T15:30:09.116Z,35.16
2018-08-22T15:32:37.634Z,34.04
2018-08-22T15:35:06.161Z,35.39
2018-08-22T15:37:34.688Z,35.57
2018-08-22T15:40:03.400Z,37.13
2018-08-22T15:42:32.031Z,37.90
2018-08-22T15:45:00.681Z,36.29
2018-08-22T15:47:29.338Z,36.11
2018-08-22T15:49:57.881Z,36.35
2018-08-22T15:52:26.494Z,36.40
2018-08-22T15:55:06.359Z,37.24
2018-08-22T15:57:48.998Z,36.96
2018-08-22T16:00:27.503Z,37.86
2018-08-22T16:02:56.172Z,39.75
2018-08-22T16:05:24.768Z,44.20
2018-08-22T16:07:53.323Z,42.60
2018-08-22T16:10:22.032Z,45.02
2018-08-22T16:12:50.629Z,42.34
2018-08-22T16:15:19.142Z,43.12
2018-08-22T16:17:53.073Z,44.54
2018-08-22T16:20:24.199Z,44.02
2018-08-22T16:22:52.940Z,43.33
2018-08-22T16:25:28.988Z,43.29
2018-08-22T16:27:57.759Z,43.74
2018-08-22T16:30:26.395Z,43.33
2018-08-22T16:32:56.657Z,42.20
2018-08-22T16:35:25.265Z,41.49
2018-08-22T16:38:01.450Z,43.20
2018-08-22T16:40:34.132Z,42.68
2018-08-22T16:43:03.045Z,45.92
2018-08-22T16:45:32.433Z,46.84
2018-08-22T16:48:00.951Z,47.05
2018-08-22T16:50:29.844Z,46.70
2018-08-22T16:52:58.491Z,45.66
2018-08-22T16:55:27.032Z,46.59
2018-08-22T16:57:55.639Z,47.80
2018-08-22T17:00:30.493Z,45.78
2018-08-22T17:02:59.273Z,48.79
2018-08-22T17:05:27.833Z,47.70
2018-08-22T17:07:56.882Z,47.35
2018-08-22T17:10:32.915Z,48.00
2018-08-22T17:13:01.500Z,46.00
2018-08-22T17:15:30.027Z,47.04
2018-08-22T17:17:58.597Z,46.37
2018-08-22T17:20:27.192Z,47.28
2018-08-22T17:22:55.737Z,49.67
2018-08-22T17:25:24.221Z,48.18
2018-08-22T17:27:52.818Z,49.04
2018-08-22T17:30:25.782Z,48.98
2018-08-22T17:32:54.400Z,49.38
2018-08-22T17:35:24.770Z,51.75
2018-08-22T17:38:00.973Z,53.04
2018-08-22T17:40:30.635Z,54.09
2018-08-22T17:42:59.138Z,55.05
2018-08-22T17:45:35.144Z,55.53
2018-08-22T17:48:04.820Z,56.84
2018-08-22T17:50:33.462Z,57.34
2018-08-22T17:53:06.297Z,57.13
2018-08-22T17:55:35.023Z,55.65
2018-08-22T17:58:03.952Z,56.01
2018-08-22T18:00:34.819Z,55.49
2018-08-22T18:03:03.481Z,56.04
2018-08-22T18:05:33.692Z,55.64
2018-08-22T18:08:04.357Z,56.71
2018-08-22T18:10:35.802Z,56.71
2018-08-22T18:13:16.829Z,56.73
2018-08-22T18:15:46.117Z,58.40
2018-08-22T18:18:14.884Z,58.41
2018-08-22T18:20:47.117Z,59.86
2018-08-22T18:23:16.410Z,60.67
2018-08-22T18:25:50.305Z,61.45
2018-08-22T18:28:20.346Z,61.21
2018-08-22T18:30:48.917Z,61.14
2018-08-22T18:33:17.526Z,62.02
2018-08-22T18:35:46.812Z,62.20
2018-08-22T18:38:15.613Z,62.97
2018-08-22T18:40:52.029Z,62.94
2018-08-22T18:43:20.920Z,62.91
2018-08-22T18:45:59.737Z,63.19
2018-08-22T18:48:28.993Z,62.94
2018-08-22T18:50:57.495Z,64.04
2018-08-22T18:53:26.099Z,64.08
2018-08-22T18:56:05.893Z,64.04
2018-08-22T18:58:34.444Z,64.72
2018-08-22T19:01:04.503Z,65.37
2018-08-22T19:03:33.170Z,65.01
2018-08-22T19:06:01.709Z,64.96
2018-08-22T19:08:30.330Z,65.63
2018-08-22T19:10:59.074Z,66.02
2018-08-22T19:13:27.771Z,66.16
2018-08-22T19:15:59.843Z,66.43
2018-08-22T19:18:28.342Z,65.41
2018-08-22T19:20:58.698Z,66.95
2018-08-22T19:23:27.468Z,66.64
2018-08-22T19:25:56.773Z,66.44
2018-08-22T19:28:25.440Z,66.28
2018-08-22T19:30:54.113Z,67.07
2018-08-22T19:33:24.035Z,66.95
2018-08-22T19:35:52.829Z,66.98
2018-08-22T19:38:23.552Z,67.90
2018-08-22T19:40:52.571Z,67.70
2018-08-22T19:43:21.198Z,68.29
2018-08-22T19:45:50.082Z,68.65
2018-08-22T19:48:18.613Z,69.10
2018-08-22T19:50:47.464Z,68.42
2018-08-22T19:53:15.976Z,69.69
2018-08-22T19:55:44.551Z,69.66
2018-08-22T19:58:15.700Z,70.08
2018-08-22T20:00:44.228Z,69.37
2018-08-22T20:03:15.366Z,70.54
2018-08-22T20:05:51.050Z,70.37
2018-08-22T20:08:23.884Z,70.11
2018-08-22T20:10:52.366Z,70.90
2018-08-22T20:13:20.860Z,70.11
2018-08-22T20:15:50.059Z,71.21
2018-08-22T20:18:19.203Z,71.49
2018-08-22T20:20:47.672Z,71.69
2018-08-22T20:23:16.296Z,71.17
2018-08-22T20:25:49.245Z,72.63
2018-08-22T20:28:17.791Z,71.34
2018-08-22T20:30:47.511Z,71.37
2018-08-22T20:33:16.174Z,71.48
2018-08-22T20:35:44.671Z,72.85
2018-08-22T20:38:13.882Z,73.39
2018-08-22T20:40:42.436Z,73.91
2018-08-22T20:43:16.078Z,72.98
2018-08-22T20:45:44.719Z,73.68
2018-08-22T20:48:14.400Z,73.37
2018-08-22T20:50:44.841Z,74.48
2018-08-22T20:53:19.403Z,74.16
2018-08-22T20:55:48.268Z,75.44
2018-08-22T20:58:20.900Z,74.59
2018-08-22T21:00:51.217Z,73.97
2018-08-22T21:03:23.378Z,74.45
2018-08-22T21:05:52.043Z,74.31
2018-08-22T21:08:20.609Z,74.66
2018-08-22T21:10:50.208Z,74.84
2018-08-22T21:13:23.919Z,74.26
2018-08-22T21:15:55.881Z,74.69
2018-08-22T21:18:28.219Z,74.45
2018-08-22T21:21:02.078Z,74.42
2018-08-22T21:23:32.564Z,74.23
2018-08-22T21:26:01.069Z,74.41
2018-08-22T21:28:33.598Z,75.74
2018-08-22T21:31:02.469Z,75.45
2018-08-22T21:33:31.779Z,75.31
2018-08-22T21:36:00.291Z,75.14
2018-08-22T21:38:28.795Z,75.79
2018-08-22T21:40:57.295Z,75.83
2018-08-22T21:43:28.983Z,76.26
2018-08-22T21:46:01.155Z,77.23
2018-08-22T21:48:32.964Z,77.33
2018-08-22T21:51:05.530Z,77.76
2018-08-22T21:53:38.423Z,76.98
2018-08-22T21:56:06.986Z,77.55
2018-08-22T21:58:37.761Z,77.36
2018-08-22T22:01:08.775Z,77.90
2018-08-22T22:03:37.272Z,77.96
2018-08-22T22:06:05.814Z,78.29
2018-08-22T22:08:34.652Z,78.34
2018-08-22T22:11:05.063Z,77.45
2018-08-22T22:13:33.709Z,77.84
2018-08-22T22:16:03.904Z,79.02
2018-08-22T22:18:33.438Z,79.34
2018-08-22T22:21:13.441Z,79.44
2018-08-22T22:23:45.842Z,79.11
2018-08-22T22:26:15.420Z,79.43
2018-08-22T22:28:44.012Z,79.49
2018-08-22T22:31:16.480Z,79.25
2018-08-22T22:33:51.980Z,80.37
2018-08-22T22:36:20.624Z,80.47
2018-08-22T22:38:49.163Z,80.31
2018-08-22T22:41:17.702Z,80.38
2018-08-22T22:43:46.234Z,81.15
2018-08-22T22:46:14.876Z,81.00
2018-08-22T22:48:44.417Z,80.31
2018-08-22T22:51:13.033Z,80.08
2018-08-22T22:53:41.672Z,80.63
2018-08-22T22:56:10.372Z,81.04
2018-08-22T22:58:38.896Z,80.35
2018-08-22T23:01:07.857Z,81.36
2018-08-22T23:03:36.518Z,80.63
2018-08-22T23:06:05.010Z,81.44
2018-08-22T23:08:33.603Z,81.19
2018-08-22T23:11:02.449Z,81.46
2018-08-22T23:13:30.954Z,81.72
2018-08-22T23:15:59.594Z,81.59
2018-08-22T23:18:28.241Z,82.14
2018-08-22T23:20:56.810Z,83.53
2018-08-22T23:23:29.642Z,83.16
2018-08-22T23:26:05.658Z,84.02
2018-08-22T23:28:34.427Z,84.02
2018-08-22T23:31:02.953Z,83.34
2018-08-22T23:33:31.486Z,83.22
2018-08-22T23:36:00.022Z,83.03
2018-08-22T23:38:32.458Z,83.57
2018-08-22T23:41:01.545Z,83.63
2018-08-22T23:43:38.767Z,83.19
2018-08-22T23:46:08.220Z,83.92
2018-08-22T23:48:37.326Z,84.69
2018-08-22T23:51:07.404Z,84.10
2018-08-22T23:53:44.909Z,84.30
2018-08-22T23:56:24.153Z,84.46
2018-08-22T23:58:53.345Z,85.04
